createdAt,value
2023-05-20T00:00:28.244Z,4.18
2023-05-20T00:02:55.872Z,4.38
2023-05-20T00:05:24.011Z,4.10
2023-05-20T00:07:51.667Z,4.22
2023-05-20T00:10:19.320Z,4.65
2023-05-20T00:12:46.921Z,4.65
2023-05-20T00:15:14.461Z,4.25
2023-05-20T00:17:42.073Z,4.40
2023-05-20T00:20:10.162Z,5.28
2023-05-20T00:22:37.739Z,4.60
2023-05-20T00:25:05.703Z,5.03
2023-05-20T00:27:33.240Z,5.15
2023-05-20T00:30:00.928Z,5.20
2023-05-20T00:32:28.747Z,4.85
2023-05-20T00:35:00.852Z,4.70
2023-05-20T00:37:28.507Z,5.72
2023-05-20T00:39:56.170Z,5.03
2023-05-20T00:42:26.388Z,4.85
2023-05-20T00:44:55.175Z,4.80
2023-05-20T00:47:29.598Z,4.10
2023-05-20T00:49:58.531Z,4.38
2023-05-20T00:52:27.335Z,5.07
2023-05-20T00:54:54.904Z,4.80
2023-05-20T00:57:22.468Z,5.05
2023-05-20T00:59:50.088Z,4.20
2023-05-20T01:02:18.802Z,3.85
2023-05-20T01:04:47.332Z,4.20
2023-05-20T01:07:19.928Z,4.45
2023-05-20T01:09:47.775Z,4.43
2023-05-20T01:12:30.321Z,3.90
2023-05-20T01:15:12.525Z,4.20
2023-05-20T01:17:45.015Z,4.40
2023-05-20T01:20:14.821Z,4.10
2023-05-20T01:22:56.947Z,3.65
2023-05-20T01:25:26.275Z,3.58
2023-05-20T01:27:59.861Z,3.97
2023-05-20T01:30:34.499Z,3.80
2023-05-20T01:33:08.245Z,3.90
2023-05-20T01:35:36.692Z,4.05
2023-05-20T01:38:06.175Z,4.03
2023-05-20T01:40:35.011Z,3.75
2023-05-20T01:43:04.302Z,4.07
2023-05-20T01:45:31.968Z,4.35
2023-05-20T01:48:01.695Z,4.07
2023-05-20T01:50:29.384Z,4.43
2023-05-20T01:52:57.003Z,3.85
2023-05-20T01:55:25.947Z,3.72
2023-05-20T01:57:53.528Z,4.38
2023-05-20T02:00:21.667Z,3.42
2023-05-20T02:02:49.915Z,4.32
2023-05-20T02:05:17.769Z,4.03
2023-05-20T02:07:45.403Z,3.92
2023-05-20T02:10:14.010Z,4.50
2023-05-20T02:12:41.679Z,4.15
2023-05-20T02:15:10.166Z,4.78
2023-05-20T02:17:37.813Z,3.92
2023-05-20T02:20:07.685Z,3.72
2023-05-20T02:22:36.075Z,3.90
2023-05-20T02:25:04.973Z,3.80
2023-05-20T02:27:32.662Z,4.03
2023-05-20T02:30:01.185Z,3.75
2023-05-20T02:32:28.936Z,4.00
2023-05-20T02:34:56.578Z,4.15
2023-05-20T02:37:24.956Z,3.90
2023-05-20T02:39:52.572Z,4.00
2023-05-20T02:42:20.536Z,4.43
2023-05-20T02:44:48.247Z,4.18
2023-05-20T02:47:15.909Z,4.05
2023-05-20T02:49:43.562Z,4.25
2023-05-20T02:52:11.338Z,4.47
2023-05-20T02:54:38.941Z,4.32
2023-05-20T02:57:06.712Z,4.32
2023-05-20T02:59:34.263Z,4.30
2023-05-20T03:02:03.126Z,4.50
2023-05-20T03:04:31.671Z,4.15
2023-05-20T03:06:59.344Z,3.92
2023-05-20T03:09:27.274Z,3.67
2023-05-20T03:11:54.949Z,4.22
2023-05-20T03:14:22.490Z,4.15
2023-05-20T03:16:50.642Z,4.70
2023-05-20T03:19:19.822Z,4.05
2023-05-20T03:21:47.416Z,5.20
2023-05-20T03:24:15.252Z,4.25
2023-05-20T03:26:43.629Z,4.43
2023-05-20T03:29:11.204Z,4.40
2023-05-20T03:31:38.869Z,4.63
2023-05-20T03:34:06.450Z,4.45
2023-05-20T03:36:34.108Z,3.40
2023-05-20T03:39:04.192Z,3.97
2023-05-20T03:41:33.243Z,4.32
2023-05-20T03:44:01.037Z,4.25
2023-05-20T03:46:28.687Z,4.10
2023-05-20T03:48:57.814Z,4.50
2023-05-20T03:51:25.835Z,4.35
2023-05-20T03:53:56.184Z,4.10
2023-05-20T03:56:23.850Z,4.80
2023-05-20T03:58:51.519Z,3.85
2023-05-20T04:01:19.718Z,4.38
2023-05-20T04:03:47.515Z,4.60
2023-05-20T04:06:15.423Z,3.90
2023-05-20T04:08:43.063Z,4.35
2023-05-20T04:11:10.804Z,4.10
2023-05-20T04:13:38.379Z,4.22
2023-05-20T04:16:06.567Z,4.40
2023-05-20T04:18:38.964Z,4.50
2023-05-20T04:21:06.658Z,4.38
2023-05-20T04:23:34.249Z,4.15
2023-05-20T04:26:02.541Z,5.57
2023-05-20T04:28:32.208Z,4.65
2023-05-20T04:31:04.369Z,4.70
2023-05-20T04:33:37.992Z,5.13
2023-05-20T04:36:16.360Z,4.25
2023-05-20T04:38:45.454Z,4.35
2023-05-20T04:41:13.042Z,4.68
2023-05-20T04:43:40.950Z,4.70
2023-05-20T04:46:09.967Z,4.57
2023-05-20T04:48:38.136Z,4.55
2023-05-20T04:51:05.695Z,5.07
2023-05-20T04:53:35.974Z,5.15
2023-05-20T04:56:03.694Z,5.28
2023-05-20T04:58:31.736Z,5.20
2023-05-20T05:01:01.416Z,4.60
2023-05-20T05:03:29.258Z,4.80
2023-05-20T05:05:58.934Z,5.05
2023-05-20T05:08:26.956Z,4.47
2023-05-20T05:10:54.842Z,4.60
2023-05-20T05:13:22.449Z,5.38
2023-05-20T05:15:59.626Z,5.43
2023-05-20T05:18:28.626Z,5.88
2023-05-20T05:21:04.092Z,4.97
2023-05-20T05:23:33.375Z,5.07
2023-05-20T05:26:01.088Z,5.03
2023-05-20T05:28:28.779Z,4.30
2023-05-20T05:30:56.713Z,5.18
2023-05-20T05:33:24.347Z,5.03
2023-05-20T05:35:52.140Z,4.43
2023-05-20T05:38:19.662Z,5.30
2023-05-20T05:40:47.720Z,4.93
2023-05-20T05:43:16.378Z,5.63
2023-05-20T05:45:45.645Z,5.28
2023-05-20T05:48:13.979Z,4.95
2023-05-20T05:50:46.685Z,5.50
2023-05-20T05:53:16.460Z,5.22
2023-05-20T05:55:47.572Z,4.80
2023-05-20T05:58:16.416Z,4.63
2023-05-20T06:00:44.238Z,4.90
2023-05-20T06:03:12.113Z,5.57
2023-05-20T06:05:40.887Z,5.28
2023-05-20T06:08:08.721Z,5.60
2023-05-20T06:10:37.302Z,5.20
2023-05-20T06:13:05.671Z,5.10
2023-05-20T06:15:34.164Z,5.03
2023-05-20T06:18:03.455Z,4.95
2023-05-20T06:20:32.736Z,5.03
2023-05-20T06:23:00.419Z,5.00
2023-05-20T06:25:36.361Z,4.50
2023-05-20T06:28:04.184Z,5.07
2023-05-20T06:30:32.572Z,5.13
2023-05-20T06:33:00.303Z,5.38
2023-05-20T06:35:27.977Z,5.15
2023-05-20T06:37:55.858Z,4.57
2023-05-20T06:40:23.636Z,5.00
2023-05-20T06:42:51.241Z,5.60
2023-05-20T06:45:19.369Z,5.47
2023-05-20T06:47:54.465Z,4.68
2023-05-20T06:50:22.151Z,5.32
2023-05-20T06:52:49.853Z,5.38
2023-05-20T06:55:17.645Z,5.43
2023-05-20T06:57:45.379Z,4.93
2023-05-20T07:00:14.477Z,5.32
2023-05-20T07:02:43.928Z,5.68
2023-05-20T07:05:14.655Z,5.38
2023-05-20T07:07:42.237Z,5.28
2023-05-20T07:10:10.335Z,5.30
2023-05-20T07:12:38.039Z,5.93
2023-05-20T07:15:06.890Z,5.40
2023-05-20T07:17:35.188Z,5.00
2023-05-20T07:20:04.216Z,5.88
2023-05-20T07:22:32.770Z,5.68
2023-05-20T07:25:29.217Z,5.53
2023-05-20T07:27:56.859Z,4.97
2023-05-20T07:30:24.496Z,5.78
2023-05-20T07:35:36.278Z,5.25
2023-05-20T07:38:04.095Z,6.10
2023-05-20T07:40:32.676Z,5.20
2023-05-20T07:43:00.321Z,5.53
2023-05-20T07:45:27.940Z,5.88
2023-05-20T07:47:55.525Z,5.60
2023-05-20T07:50:23.670Z,5.93
2023-05-20T07:52:56.495Z,4.72
2023-05-20T07:55:27.330Z,5.28
2023-05-20T07:57:56.288Z,5.28
2023-05-20T08:00:25.005Z,6.00
2023-05-20T08:02:52.651Z,5.85
2023-05-20T08:05:28.168Z,5.35
2023-05-20T08:07:56.345Z,5.70
2023-05-20T08:10:26.958Z,5.30
2023-05-20T08:12:54.901Z,5.15
2023-05-20T08:15:22.640Z,5.28
2023-05-20T08:17:50.400Z,5.68
2023-05-20T08:20:20.141Z,5.50
2023-05-20T08:22:47.699Z,4.95
2023-05-20T08:25:16.058Z,5.53
2023-05-20T08:27:45.019Z,5.60
2023-05-20T08:30:13.621Z,6.03
2023-05-20T08:32:42.074Z,6.05
2023-05-20T08:35:10.197Z,6.10
2023-05-20T08:37:37.789Z,6.13
2023-05-20T08:40:06.515Z,5.85
2023-05-20T08:42:34.357Z,6.13
2023-05-20T08:45:05.400Z,6.80
2023-05-20T08:47:33.411Z,6.50
2023-05-20T08:50:00.975Z,5.57
2023-05-20T08:52:31.525Z,6.18
2023-05-20T08:54:59.488Z,5.45
2023-05-20T08:57:27.857Z,5.45
2023-05-20T08:59:57.226Z,5.80
2023-05-20T09:02:24.741Z,5.80
2023-05-20T09:04:53.940Z,6.40
2023-05-20T09:07:28.958Z,6.07
2023-05-20T09:09:57.161Z,5.60
2023-05-20T09:12:24.700Z,7.47
2023-05-20T09:14:52.264Z,6.22
2023-05-20T09:17:23.045Z,6.85
2023-05-20T09:19:51.599Z,5.45
2023-05-20T09:22:39.719Z,6.22
2023-05-20T09:25:08.121Z,18.70
2023-05-20T09:27:36.150Z,6.53
2023-05-20T09:30:07.658Z,6.18
2023-05-20T09:32:35.430Z,5.72
2023-05-20T09:35:06.115Z,14.70
2023-05-20T09:37:36.745Z,10.30
2023-05-20T09:40:06.263Z,6.13
2023-05-20T09:42:52.651Z,5.85
2023-05-20T09:45:22.173Z,6.45
2023-05-20T09:47:53.032Z,5.85
2023-05-20T09:50:23.254Z,6.35
2023-05-20T09:52:53.625Z,6.15
2023-05-20T09:55:24.904Z,5.97
2023-05-20T09:57:54.610Z,5.75
2023-05-20T10:00:22.158Z,5.35
2023-05-20T10:02:53.759Z,5.97
2023-05-20T10:05:37.683Z,6.10
2023-05-20T10:08:25.879Z,5.50
2023-05-20T10:11:02.112Z,5.57
2023-05-20T10:13:39.132Z,5.35
2023-05-20T10:16:24.698Z,4.78
2023-05-20T10:19:27.591Z,5.38
2023-05-20T10:22:08.606Z,5.35
2023-05-20T10:24:41.742Z,5.25
2023-05-20T10:27:12.790Z,5.32
2023-05-20T10:29:52.026Z,4.80
2023-05-20T10:32:34.754Z,5.78
2023-05-20T10:35:09.039Z,6.13
2023-05-20T10:37:45.253Z,6.07
2023-05-20T10:40:19.660Z,5.43
2023-05-20T10:42:48.784Z,5.03
2023-05-20T10:45:28.970Z,5.75
2023-05-20T10:47:59.077Z,4.97
2023-05-20T10:50:36.372Z,5.13
2023-05-20T10:53:18.816Z,5.28
2023-05-20T10:55:54.920Z,5.72
2023-05-20T10:58:24.632Z,5.72
2023-05-20T11:00:55.082Z,6.10
2023-05-20T11:03:24.114Z,6.38
2023-05-20T11:05:52.250Z,5.72
2023-05-20T11:08:27.805Z,5.80
2023-05-20T11:10:59.279Z,5.60
2023-05-20T11:13:27.659Z,5.43
2023-05-20T11:15:55.697Z,5.65
2023-05-20T11:18:23.230Z,4.75
2023-05-20T11:20:51.073Z,5.30
2023-05-20T11:23:19.165Z,5.43
2023-05-20T11:25:46.786Z,5.38
2023-05-20T11:28:14.792Z,5.93
2023-05-20T11:30:45.924Z,4.90
2023-05-20T11:33:15.902Z,5.85
2023-05-20T11:35:50.723Z,5.57
2023-05-20T11:38:22.263Z,5.35
2023-05-20T11:40:55.379Z,5.40
2023-05-20T11:45:59.828Z,5.95
2023-05-20T11:48:27.866Z,5.70
2023-05-20T11:50:57.062Z,5.93
2023-05-20T11:53:25.251Z,5.28
2023-05-20T11:56:00.362Z,4.60
2023-05-20T11:58:30.914Z,5.28
2023-05-20T12:01:13.518Z,4.88
2023-05-20T12:03:47.121Z,5.72
2023-05-20T12:06:14.964Z,4.70
2023-05-20T12:08:42.512Z,4.72
2023-05-20T12:11:10.099Z,5.03
2023-05-20T12:13:38.026Z,4.35
2023-05-20T12:16:06.400Z,5.63
2023-05-20T12:18:34.280Z,4.55
2023-05-20T12:21:01.824Z,4.40
2023-05-20T12:23:30.742Z,5.35
2023-05-20T12:25:58.320Z,5.10
2023-05-20T12:28:26.137Z,4.30
2023-05-20T12:30:53.718Z,5.00
2023-05-20T12:33:21.385Z,6.03
2023-05-20T12:35:48.902Z,4.55
2023-05-20T12:38:16.524Z,4.45
2023-05-20T12:40:44.144Z,4.20
2023-05-20T12:43:11.743Z,5.07
2023-05-20T12:45:39.271Z,5.38
2023-05-20T12:48:08.098Z,4.80
2023-05-20T12:50:36.168Z,4.82
2023-05-20T12:53:03.986Z,4.97
2023-05-20T12:55:31.601Z,4.57
2023-05-20T12:57:59.173Z,6.07
2023-05-20T13:00:26.708Z,6.05
2023-05-20T13:02:54.737Z,6.13
2023-05-20T13:05:23.258Z,5.38
2023-05-20T13:07:51.494Z,5.60
2023-05-20T13:10:19.944Z,5.60
2023-05-20T13:12:47.700Z,5.68
2023-05-20T13:15:16.063Z,5.38
2023-05-20T13:17:43.730Z,5.13
2023-05-20T13:20:12.132Z,6.38
2023-05-20T13:22:39.764Z,5.38
2023-05-20T13:25:09.097Z,5.55
2023-05-20T13:27:36.688Z,5.50
2023-05-20T13:30:06.160Z,5.10
2023-05-20T13:32:33.875Z,5.90
2023-05-20T13:35:01.559Z,5.97
2023-05-20T13:37:29.981Z,5.68
2023-05-20T13:39:57.633Z,5.82
2023-05-20T13:42:25.522Z,6.07
2023-05-20T13:44:53.173Z,5.47
2023-05-20T13:47:20.942Z,5.43
2023-05-20T13:49:48.513Z,5.30
2023-05-20T13:52:16.154Z,5.28
2023-05-20T13:54:46.745Z,5.47
2023-05-20T13:57:15.604Z,5.82
2023-05-20T13:59:43.242Z,5.55
2023-05-20T14:02:11.049Z,5.45
2023-05-20T14:04:39.716Z,5.80
2023-05-20T14:07:09.847Z,4.85
2023-05-20T14:09:37.957Z,5.45
2023-05-20T14:12:06.551Z,5.40
2023-05-20T14:14:34.508Z,5.50
2023-05-20T14:17:02.096Z,5.85
2023-05-20T14:19:30.051Z,6.07
2023-05-20T14:22:01.000Z,5.78
2023-05-20T14:24:28.951Z,5.38
2023-05-20T14:26:56.580Z,5.35
2023-05-20T14:29:24.303Z,5.20
2023-05-20T14:31:51.903Z,5.28
2023-05-20T14:34:19.542Z,5.60
2023-05-20T14:36:47.739Z,5.93
2023-05-20T14:39:15.517Z,6.63
2023-05-20T14:41:43.084Z,5.68
2023-05-20T14:44:10.720Z,5.22
2023-05-20T14:46:38.480Z,5.15
2023-05-20T14:49:06.234Z,5.10
2023-05-20T14:51:33.818Z,4.57
2023-05-20T14:54:01.404Z,4.72
2023-05-20T14:56:29.272Z,4.85
2023-05-20T14:58:59.354Z,5.13
2023-05-20T15:01:27.007Z,5.13
2023-05-20T15:03:54.698Z,5.00
2023-05-20T15:06:22.814Z,5.32
2023-05-20T15:08:50.637Z,5.75
2023-05-20T15:11:18.354Z,12.27
2023-05-20T15:13:46.550Z,10.48
2023-05-20T15:16:14.368Z,9.02
2023-05-20T15:18:42.145Z,5.65
2023-05-20T15:21:09.837Z,6.38
2023-05-20T15:23:37.495Z,7.03
2023-05-20T15:26:05.474Z,6.55
2023-05-20T15:28:33.265Z,17.67
2023-05-20T15:31:01.061Z,5.80
2023-05-20T15:33:28.733Z,5.95
2023-05-20T15:35:56.552Z,5.60
2023-05-20T15:38:24.364Z,4.47
2023-05-20T15:40:53.372Z,6.45
2023-05-20T15:43:21.093Z,5.10
2023-05-20T15:45:48.713Z,5.07
2023-05-20T15:48:17.193Z,5.88
2023-05-20T15:50:44.902Z,5.95
2023-05-20T15:53:14.384Z,5.28
2023-05-20T15:55:42.960Z,7.03
2023-05-20T15:58:11.147Z,6.18
2023-05-20T16:00:38.962Z,6.18
2023-05-20T16:03:06.644Z,6.18
2023-05-20T16:05:34.412Z,6.50
2023-05-20T16:08:02.308Z,7.03
2023-05-20T16:10:33.002Z,6.57
2023-05-20T16:13:01.283Z,10.00
2023-05-20T16:15:35.500Z,8.35
2023-05-20T16:18:03.278Z,7.82
2023-05-20T16:20:31.040Z,7.22
2023-05-20T16:22:58.766Z,6.88
2023-05-20T16:25:26.385Z,22.60
2023-05-20T16:27:53.930Z,12.15
2023-05-20T16:30:21.517Z,32.75
2023-05-20T16:32:49.338Z,11.50
2023-05-20T16:35:17.093Z,19.27
2023-05-20T16:37:44.752Z,15.50
2023-05-20T16:40:12.970Z,11.50
2023-05-20T16:42:40.794Z,8.57
2023-05-20T16:45:08.945Z,7.32
2023-05-20T16:47:36.957Z,7.60
2023-05-20T16:50:05.219Z,6.60
2023-05-20T16:52:37.807Z,7.00
2023-05-20T16:55:08.376Z,11.85
2023-05-20T16:57:36.310Z,8.27
2023-05-20T17:00:11.526Z,18.60
2023-05-20T17:02:39.463Z,20.38
2023-05-20T17:05:07.528Z,9.82
2023-05-20T17:07:35.949Z,7.93
2023-05-20T17:10:03.877Z,7.68
2023-05-20T17:12:31.491Z,7.38
2023-05-20T17:14:59.096Z,7.78
2023-05-20T17:17:26.657Z,6.50
2023-05-20T17:19:54.709Z,7.50
2023-05-20T17:22:23.025Z,7.07
2023-05-20T17:24:50.646Z,9.25
2023-05-20T17:27:18.217Z,8.20
2023-05-20T17:29:46.243Z,9.65
2023-05-20T17:32:13.814Z,8.65
2023-05-20T17:34:41.439Z,7.68
2023-05-20T17:37:09.003Z,6.88
2023-05-20T17:39:36.782Z,8.38
2023-05-20T17:42:04.733Z,8.18
2023-05-20T17:44:32.481Z,7.90
2023-05-20T17:47:00.378Z,8.88
2023-05-20T17:49:27.940Z,8.68
2023-05-20T17:51:55.496Z,7.63
2023-05-20T17:54:23.054Z,8.07
2023-05-20T17:56:51.162Z,7.47
2023-05-20T17:59:18.747Z,6.93
2023-05-20T18:01:46.629Z,7.32
2023-05-20T18:04:14.348Z,8.02
2023-05-20T18:06:42.816Z,8.57
2023-05-20T18:09:10.456Z,8.00
2023-05-20T18:11:39.063Z,7.70
2023-05-20T18:14:06.589Z,10.02
2023-05-20T18:16:34.656Z,9.73
2023-05-20T18:19:02.972Z,9.32
2023-05-20T18:21:30.791Z,7.53
2023-05-20T18:23:58.430Z,7.85
2023-05-20T18:26:26.449Z,8.43
2023-05-20T18:28:53.991Z,8.55
2023-05-20T18:31:21.622Z,7.68
2023-05-20T18:33:49.200Z,7.63
2023-05-20T18:36:16.951Z,7.93
2023-05-20T18:38:44.998Z,10.68
2023-05-20T18:41:12.797Z,8.73
2023-05-20T18:43:40.493Z,8.57
2023-05-20T18:46:08.079Z,7.43
2023-05-20T18:48:35.853Z,7.75
2023-05-20T18:51:03.527Z,7.80
2023-05-20T18:53:31.506Z,7.82
2023-05-20T18:56:02.979Z,7.95
2023-05-20T18:58:30.628Z,8.07
2023-05-20T19:00:58.164Z,8.15
2023-05-20T19:03:26.412Z,7.90
2023-05-20T19:05:54.008Z,8.52
2023-05-20T19:08:23.115Z,9.38
2023-05-20T19:10:50.763Z,8.65
2023-05-20T19:13:18.642Z,8.25
2023-05-20T19:15:46.165Z,8.25
2023-05-20T19:18:14.146Z,8.38
2023-05-20T19:20:41.713Z,7.55
2023-05-20T19:23:09.334Z,7.70
2023-05-20T19:25:37.132Z,7.78
2023-05-20T19:28:04.922Z,9.00
2023-05-20T19:30:32.727Z,8.68
2023-05-20T19:33:03.607Z,8.55
2023-05-20T19:35:33.211Z,8.98
2023-05-20T19:38:00.819Z,7.30
2023-05-20T19:40:28.861Z,8.05
2023-05-20T19:42:56.447Z,8.52
2023-05-20T19:45:24.024Z,9.00
2023-05-20T19:47:51.614Z,8.23
2023-05-20T19:50:19.300Z,8.95
2023-05-20T19:52:46.842Z,8.75
2023-05-20T19:55:15.656Z,8.45
2023-05-20T19:57:46.433Z,8.98
2023-05-20T20:00:14.334Z,8.85
2023-05-20T20:02:41.889Z,8.38
2023-05-20T20:05:09.944Z,8.75
2023-05-20T20:07:37.568Z,8.23
2023-05-20T20:10:05.814Z,8.73
2023-05-20T20:12:33.458Z,7.47
2023-05-20T20:15:01.225Z,8.65
2023-05-20T20:17:30.205Z,8.15
2023-05-20T20:19:57.925Z,8.23
2023-05-20T20:22:25.569Z,8.75
2023-05-20T20:24:53.088Z,7.78
2023-05-20T20:27:23.627Z,7.90
2023-05-20T20:29:51.361Z,7.55
2023-05-20T20:32:19.096Z,7.85
2023-05-20T20:34:46.655Z,8.18
2023-05-20T20:37:15.516Z,8.27
2023-05-20T20:39:46.708Z,8.27
2023-05-20T20:42:14.307Z,9.13
2023-05-20T20:44:48.126Z,9.20
2023-05-20T20:47:16.007Z,9.13
2023-05-20T20:49:43.562Z,8.50
2023-05-20T20:52:12.290Z,8.60
2023-05-20T20:54:42.190Z,9.07
2023-05-20T20:57:11.466Z,8.43
2023-05-20T20:59:39.848Z,9.20
2023-05-20T21:02:07.806Z,7.95
2023-05-20T21:04:35.786Z,8.43
2023-05-20T21:07:03.444Z,8.68
2023-05-20T21:09:31.116Z,9.02
2023-05-20T21:12:00.355Z,9.10
2023-05-20T21:14:27.988Z,8.77
2023-05-20T21:16:55.696Z,8.70
2023-05-20T21:19:23.359Z,8.80
2023-05-20T21:21:50.954Z,8.75
2023-05-20T21:24:19.663Z,8.82
2023-05-20T21:26:47.243Z,10.68
2023-05-20T21:29:14.835Z,10.50
2023-05-20T21:31:42.473Z,9.38
2023-05-20T21:34:10.048Z,9.52
2023-05-20T21:36:37.743Z,9.88
2023-05-20T21:39:05.459Z,8.85
2023-05-20T21:41:33.165Z,8.70
2023-05-20T21:44:00.855Z,9.40
2023-05-20T21:46:28.489Z,9.20
2023-05-20T21:48:56.405Z,11.40
2023-05-20T21:51:24.110Z,10.60
2023-05-20T21:53:51.657Z,10.88
2023-05-20T21:56:19.230Z,10.57
2023-05-20T21:58:46.778Z,10.43
2023-05-20T22:01:14.443Z,10.55
2023-05-20T22:03:47.943Z,10.75
2023-05-20T22:06:17.180Z,10.35
2023-05-20T22:08:44.811Z,10.93
2023-05-20T22:11:12.497Z,10.25
2023-05-20T22:13:41.517Z,11.20
2023-05-20T22:16:09.400Z,10.52
2023-05-20T22:18:38.416Z,10.43
2023-05-20T22:21:06.341Z,9.75
2023-05-20T22:23:33.926Z,10.70
2023-05-20T22:26:01.567Z,10.93
2023-05-20T22:28:30.343Z,12.40
2023-05-20T22:30:57.898Z,11.95
2023-05-20T22:33:26.790Z,10.07
2023-05-20T22:35:54.425Z,10.27
2023-05-20T22:38:21.983Z,12.15
2023-05-20T22:40:50.336Z,12.35
2023-05-20T22:43:17.857Z,11.25
2023-05-20T22:45:45.499Z,10.95
2023-05-20T22:48:13.297Z,10.43
2023-05-20T22:50:41.348Z,11.95
2023-05-20T22:53:09.255Z,10.48
2023-05-20T22:55:38.716Z,11.52
2023-05-20T22:58:07.884Z,10.95
2023-05-20T23:00:35.766Z,11.35
2023-05-20T23:03:03.423Z,12.82
2023-05-20T23:05:31.662Z,10.82
2023-05-20T23:07:59.626Z,11.10
2023-05-20T23:10:27.205Z,11.07
2023-05-20T23:12:54.808Z,10.60
2023-05-20T23:15:25.041Z,11.45
2023-05-20T23:17:52.689Z,11.95
2023-05-20T23:20:22.230Z,11.50
2023-05-20T23:22:49.995Z,13.05
2023-05-20T23:25:17.643Z,11.63
2023-05-20T23:27:45.505Z,13.15
2023-05-20T23:30:13.230Z,12.35
2023-05-20T23:32:40.879Z,12.50
2023-05-20T23:35:11.415Z,12.90
2023-05-20T23:37:40.828Z,12.88
2023-05-20T23:40:09.219Z,12.93
2023-05-20T23:42:36.979Z,12.82
2023-05-20T23:45:05.829Z,12.05
2023-05-20T23:47:34.211Z,13.13
2023-05-20T23:50:02.109Z,11.98
2023-05-20T23:52:29.796Z,11.32
2023-05-20T23:54:58.510Z,11.95
2023-05-20T23:57:26.032Z,12.38
2023-05-20T23:59:53.696Z,12.23
